Time;durP1;ratioP1;P1;durP2;ratioP2;P2;SDS_P1;SDS_P2;PMS_P1;PMS_P2;Temp;Humidity;BMP_temperature;BMP_pressure;BME280_temperature;BME280_humidity;BME280_pressure;Samples;Min_cycle;Max_cycle;Signal;HPM_P1;HPM_P2
2022/10/13 00:01:31;;;;;;;;;9.00;9.00;;;;;17.66;53.74;101323.25;4995374;28;45751;-80
2022/10/13 00:03:56;;;;;;;;;10.00;9.00;;;;;17.65;54.24;101318.94;4995216;28;45623;-80
2022/10/13 00:06:24;;;;;;;;;12.00;10.00;;;;;17.63;53.68;101321.72;4995121;28;45826;-81
2022/10/13 00:08:50;;;;;;;;;12.00;11.25;;;;;17.63;54.16;101321.72;4995050;28;45740;-81
2022/10/13 00:14:37;;;;;;;;;11.00;10.50;;;;;17.65;53.96;101313.63;4994677;28;46046;-79
2022/10/13 00:17:02;;;;;;;;;10.00;9.25;;;;;17.64;54.28;101311.97;4994897;28;45620;-82
2022/10/13 00:19:30;;;;;;;;;8.00;7.25;;;;;17.65;54.15;101321.59;4995087;28;45603;-78
2022/10/13 00:21:55;;;;;;;;;8.75;7.75;;;;;17.63;54.09;101324.38;4995101;28;45599;-80
2022/10/13 00:24:21;;;;;;;;;8.25;8.00;;;;;17.59;54.15;101318.50;4977120;28;47710;-82
2022/10/13 00:30:08;;;;;;;;;11.00;9.00;;;;;17.65;53.78;101317.13;4994620;28;45573;-79
2022/10/13 00:32:34;;;;;;;;;8.00;7.00;;;;;17.65;54.24;101308.34;4993442;28;45770;-83
2022/10/13 00:34:59;;;;;;;;;10.25;9.25;;;;;17.63;54.20;101305.81;4994586;28;45717;-79
2022/10/13 00:37:24;;;;;;;;;9.00;8.50;;;;;17.66;54.29;101299.38;4994712;28;46044;-80
2022/10/13 00:39:50;;;;;;;;;9.25;8.75;;;;;17.65;54.29;101287.97;4994615;28;45617;-79
2022/10/13 00:42:15;;;;;;;;;10.50;10.00;;;;;17.66;54.45;101272.88;4976082;28;45588;-80
2022/10/13 00:45:18;;;;;;;;;11.00;10.00;;;;;17.64;54.03;101277.50;4994151;28;46213;-79
2022/10/13 00:47:49;;;;;;;;;10.75;10.00;;;;;17.61;54.49;101284.75;4994719;28;46065;-79
2022/10/13 00:50:22;;;;;;;;;10.50;10.25;;;;;17.59;53.97;101275.25;4994802;28;45458;-80
2022/10/13 00:52:51;;;;;;;;;11.50;10.75;;;;;17.59;54.50;101277.88;4999153;28;45530;-81
2022/10/13 00:55:21;;;;;;;;;12.00;10.50;;;;;17.58;54.38;101287.66;5005636;28;45767;-79
2022/10/13 00:57:53;;;;;;;;;12.00;11.00;;;;;17.58;54.36;101284.16;5005754;28;45462;-80
2022/10/13 01:00:20;;;;;;;;;13.00;12.00;;;;;17.57;54.53;101285.97;5001438;28;45624;-80
2022/10/13 01:02:46;;;;;;;;;10.50;8.00;;;;;17.58;54.32;101284.16;4997111;28;45551;-82
2022/10/13 01:05:11;;;;;;;;;11.00;11.00;;;;;17.57;54.39;101279.81;4994917;28;45442;-81
2022/10/13 01:07:38;;;;;;;;;12.50;11.25;;;;;17.57;54.38;101277.19;4994756;28;45552;-81
2022/10/13 01:10:04;;;;;;;;;15.50;13.50;;;;;17.55;54.79;101290.56;4994210;28;45820;-80
2022/10/13 01:12:51;;;;;;;;;14.50;11.50;;;;;17.55;54.78;101295.84;4994543;28;45486;-80
2022/10/13 01:15:36;;;;;;;;;8.50;8.50;;;;;17.51;55.30;101283.88;4994167;28;46548;-81
2022/10/13 01:18:19;;;;;;;;;12.25;11.50;;;;;17.52;55.50;101276.75;4994155;28;45610;-80
2022/10/13 01:20:50;;;;;;;;;11.50;11.25;;;;;17.51;55.14;101275.91;4994045;28;45711;-78
2022/10/13 01:23:15;;;;;;;;;11.75;10.25;;;;;17.49;55.05;101272.56;4994045;28;45636;-79
2022/10/13 01:26:16;;;;;;;;;9.00;9.00;;;;;17.50;55.07;101284.00;4976094;28;47723;-80
2022/10/13 01:28:59;;;;;;;;;12.00;10.50;;;;;17.49;55.47;101277.84;4993774;28;45931;-79
2022/10/13 01:31:39;;;;;;;;;14.00;10.25;;;;;17.48;55.59;101275.38;4993881;28;45644;-81
2022/10/13 01:34:25;;;;;;;;;10.25;9.00;;;;;17.45;55.58;101257.06;4993823;28;45695;-80
2022/10/13 01:37:11;;;;;;;;;10.00;9.00;;;;;17.47;55.85;101268.38;4993662;28;45707;-81
2022/10/13 01:39:46;;;;;;;;;7.00;6.00;;;;;17.45;56.07;101263.22;4993888;28;45910;-80
2022/10/13 01:42:23;;;;;;;;;10.50;9.50;;;;;17.43;56.20;101257.22;4993785;28;45541;-78
2022/10/13 01:44:56;;;;;;;;;10.50;8.75;;;;;17.46;56.21;101264.06;4993543;28;45655;-81
2022/10/13 01:47:24;;;;;;;;;11.00;9.75;;;;;17.43;56.08;101259.88;4993567;28;45625;-81
2022/10/13 01:49:52;;;;;;;;;9.25;9.00;;;;;17.46;55.90;101272.00;4993690;28;45940;-81
2022/10/13 01:52:20;;;;;;;;;17.00;12.00;;;;;17.45;55.76;101271.16;4993786;28;45537;-80
2022/10/13 01:54:53;;;;;;;;;12.50;10.50;;;;;17.44;56.23;101274.78;4996694;28;45652;-80
2022/10/13 01:57:30;;;;;;;;;10.50;9.00;;;;;17.44;56.20;101260.69;4996993;28;46293;-80
2022/10/13 01:59:58;;;;;;;;;9.25;8.25;;;;;17.38;56.77;101246.19;4996984;28;45971;-81
2022/10/13 02:02:33;;;;;;;;;10.00;9.50;;;;;17.38;56.30;101253.31;4979212;28;45855;-79
2022/10/13 02:05:04;;;;;;;;;11.50;11.25;;;;;17.40;56.84;101260.13;4997134;28;45525;-81
2022/10/13 02:07:55;;;;;;;;;12.00;10.00;;;;;17.39;56.48;101258.47;4978865;28;49029;-80
2022/10/13 02:13:48;;;;;;;;;11.00;9.50;;;;;17.35;57.07;101243.81;4996529;28;45573;-78
2022/10/13 02:16:15;;;;;;;;;8.75;8.25;;;;;17.36;57.10;101253.44;4997133;28;45653;-81
2022/10/13 02:18:42;;;;;;;;;9.00;7.00;;;;;17.32;57.17;101238.81;4996855;28;45531;-82
2022/10/13 02:21:08;;;;;;;;;9.00;9.00;;;;;17.33;57.31;101244.94;4996755;28;46237;-79
2022/10/13 02:23:34;;;;;;;;;9.75;9.50;;;;;17.32;57.17;101238.81;4996597;28;45517;-81
2022/10/13 02:29:22;;;;;;;;;8.50;7.75;;;;;17.31;57.11;101228.34;4996488;28;45557;-79
2022/10/13 02:31:47;;;;;;;;;8.50;7.25;;;;;17.30;57.27;101227.50;4996608;28;45730;-80
2022/10/13 02:34:13;;;;;;;;;5.50;5.50;;;;;17.28;57.42;101234.75;4996679;28;45894;-79
2022/10/13 02:36:39;;;;;;;;;10.25;8.50;;;;;17.23;57.75;101217.59;4996759;28;45637;-79
2022/10/13 02:39:09;;;;;;;;;9.50;7.75;;;;;17.20;57.56;101210.75;4996467;28;46273;-79
2022/10/13 02:44:56;;;;;;;;;11.00;9.75;;;;;17.18;57.84;101194.16;4995604;28;45701;-79
2022/10/13 02:47:22;;;;;;;;;6.75;6.00;;;;;17.16;57.88;101169.66;4978687;28;45671;-79
2022/10/13 02:49:48;;;;;;;;;10.00;8.00;;;;;17.17;57.93;101176.59;4996692;28;45759;-79
2022/10/13 02:52:13;;;;;;;;;9.25;7.75;;;;;17.17;57.49;101181.88;4978640;28;46334;-78
2022/10/13 02:54:39;;;;;;;;;8.25;8.00;;;;;17.17;57.91;101185.38;4996610;28;45684;-80
2022/10/13 03:00:26;;;;;;;;;9.50;8.75;;;;;17.19;58.05;101196.69;4996048;28;45643;-78
2022/10/13 03:02:53;;;;;;;;;10.50;9.00;;;;;17.19;57.99;101209.91;4996145;28;45922;-80
2022/10/13 03:05:18;;;;;;;;;10.25;8.25;;;;;17.17;58.11;101205.72;4995654;28;45755;-81
2022/10/13 03:07:44;;;;;;;;;9.50;8.00;;;;;17.18;58.05;101202.94;4996514;28;45545;-81
2022/10/13 03:10:10;;;;;;;;;7.50;7.50;;;;;17.18;57.91;101197.66;4995921;28;45580;-80
2022/10/13 03:15:57;;;;;;;;;10.00;9.00;;;;;17.20;57.91;101202.81;4995906;28;45743;-81
2022/10/13 03:18:23;;;;;;;;;9.00;7.75;;;;;17.19;58.00;101193.19;4978111;28;45875;-80
2022/10/13 03:21:04;;;;;;;;;8.50;8.50;;;;;17.19;57.90;101190.53;4995827;28;45576;-81
2022/10/13 03:23:30;;;;;;;;;9.00;7.75;;;;;17.15;57.88;101170.63;4995777;28;45964;-80
2022/10/13 03:25:56;;;;;;;;;10.00;8.50;;;;;17.19;57.82;101164.91;4978124;28;45689;-80
2022/10/13 03:31:43;;;;;;;;;10.25;8.75;;;;;17.20;57.99;101169.22;4995342;28;45603;-77
2022/10/13 03:34:10;;;;;;;;;7.00;7.00;;;;;17.20;58.30;101165.75;4995715;28;45592;-77
2022/10/13 03:36:36;;;;;;;;;10.00;10.00;;;;;17.18;57.91;101171.16;4995770;28;45573;-77
2022/10/13 03:39:02;;;;;;;;;8.25;7.00;;;;;17.19;57.88;101180.78;4996051;28;45720;-78
2022/10/13 03:41:27;;;;;;;;;7.50;7.50;;;;;17.19;58.15;101174.66;4995734;28;46616;-78
2022/10/13 03:43:53;;;;;;;;;10.50;9.00;;;;;17.19;57.90;101164.91;4995149;28;46000;-77
2022/10/13 03:46:19;;;;;;;;;8.00;7.75;;;;;17.22;58.09;101160.31;4995704;28;45616;-78
2022/10/13 03:48:45;;;;;;;;;7.75;7.00;;;;;17.22;57.70;101152.38;4995716;28;45702;-77
2022/10/13 03:51:15;;;;;;;;;8.75;7.00;;;;;17.20;57.87;101156.00;4995422;28;45635;-77
2022/10/13 03:53:40;;;;;;;;;8.50;8.00;;;;;17.23;57.89;101141.63;4995468;28;45626;-78
2022/10/13 03:56:06;;;;;;;;;10.00;9.75;;;;;17.24;57.44;101126.56;4995498;28;45634;-80
2022/10/13 04:01:54;;;;;;;;;9.00;8.00;;;;;17.26;57.82;101140.53;4994938;28;45621;-76
2022/10/13 04:04:20;;;;;;;;;11.00;8.75;;;;;17.23;57.73;101152.22;4995120;28;46031;-77
2022/10/13 04:06:45;;;;;;;;;9.75;8.25;;;;;17.24;57.59;101138.00;4995510;28;45577;-77
2022/10/13 04:09:11;;;;;;;;;10.00;9.00;;;;;17.27;57.74;101148.34;4995448;28;45527;-79
2022/10/13 04:11:36;;;;;;;;;11.00;11.00;;;;;17.27;58.28;101144.84;4995015;28;45643;-81
2022/10/13 04:14:02;;;;;;;;;9.75;9.00;;;;;17.26;58.13;101133.41;4994911;28;45621;-81
2022/10/13 04:16:29;;;;;;;;;10.50;9.00;;;;;17.26;57.82;101125.47;4994447;28;45625;-78
2022/10/13 04:19:01;;;;;;;;;9.50;8.00;;;;;17.25;58.31;101134.38;4977014;28;45680;-78
2022/10/13 04:21:28;;;;;;;;;11.00;10.25;;;;;17.22;57.78;101142.59;4995232;28;45646;-79
2022/10/13 04:23:58;;;;;;;;;9.75;9.00;;;;;17.24;57.82;101148.59;4994989;28;46068;-80
2022/10/13 04:26:26;;;;;;;;;8.75;8.50;;;;;17.21;58.28;101148.88;4995062;28;45831;-81
2022/10/13 04:32:13;;;;;;;;;11.75;9.75;;;;;17.17;58.51;101148.31;4994521;28;46027;-80
2022/10/13 04:34:38;;;;;;;;;10.75;10.00;;;;;17.17;58.19;101152.75;4994690;28;45655;-81
2022/10/13 04:37:04;;;;;;;;;12.50;10.00;;;;;17.13;58.16;101149.56;4994705;28;45525;-81
2022/10/13 04:39:29;;;;;;;;;10.50;8.25;;;;;17.14;58.65;101161.84;4994934;28;45640;-80
2022/10/13 04:41:55;;;;;;;;;10.75;9.75;;;;;17.12;58.37;101152.34;4994590;28;46494;-80
2022/10/13 04:44:20;;;;;;;;;10.00;8.50;;;;;17.06;58.26;101156.38;4994166;28;45920;-78
2022/10/13 04:46:46;;;;;;;;;14.50;9.00;;;;;17.02;58.72;101167.38;4994760;28;45485;-80
2022/10/13 04:49:11;;;;;;;;;10.00;9.00;;;;;16.98;58.76;101158.88;4976831;28;45834;-80
2022/10/13 04:51:37;;;;;;;;;11.00;10.50;;;;;16.94;58.92;101154.00;4994550;28;46273;-79
2022/10/13 04:54:04;;;;;;;;;10.75;9.50;;;;;16.93;58.71;101155.81;4994388;28;46039;-82
2022/10/13 04:56:30;;;;;;;;;9.75;7.75;;;;;16.93;58.65;101142.56;4994734;28;45559;-81
2022/10/13 05:02:17;;;;;;;;;8.25;8.00;;;;;16.93;58.98;101141.75;4994174;28;46071;-78
2022/10/13 05:04:44;;;;;;;;;10.75;9.75;;;;;16.92;58.94;101143.53;4993964;28;45680;-80
2022/10/13 05:07:10;;;;;;;;;9.00;8.75;;;;;16.91;58.81;101130.44;4996974;28;45717;-81
2022/10/13 05:09:35;;;;;;;;;11.50;9.00;;;;;16.91;58.98;101130.44;4993498;28;45732;-79
2022/10/13 05:12:00;;;;;;;;;12.00;11.25;;;;;16.90;59.13;101132.25;4993574;28;46212;-78
2022/10/13 05:17:47;;;;;;;;;9.25;8.50;;;;;16.91;59.22;101139.22;4994064;28;45654;-80
2022/10/13 05:20:13;;;;;;;;;11.75;9.50;;;;;16.91;59.41;101139.22;4993990;28;45604;-78
2022/10/13 05:22:38;;;;;;;;;9.25;9.00;;;;;16.89;59.49;101135.06;4993990;28;46743;-80
2022/10/13 05:25:04;;;;;;;;;64.00;48.75;;;;;16.88;59.70;101141.31;4993697;28;45772;-75
2022/10/13 05:27:29;;;;;;;;;21.75;18.50;;;;;16.86;59.76;101127.38;4993895;28;45611;-76
2022/10/13 05:29:55;;;;;;;;;16.00;13.25;;;;;16.85;59.49;101133.63;4996888;28;45535;-76
2022/10/13 05:32:20;;;;;;;;;12.50;11.25;;;;;16.85;59.89;101120.38;4997410;28;46204;-74
2022/10/13 05:34:48;;;;;;;;;9.00;8.75;;;;;16.85;59.55;101120.38;4997379;28;46599;-75
2022/10/13 05:37:15;;;;;;;;;12.50;11.50;;;;;16.85;59.45;101125.69;4997590;28;45769;-75
2022/10/13 05:39:41;;;;;;;;;11.75;9.25;;;;;16.87;59.52;101123.75;4997484;28;45704;-75
2022/10/13 05:42:07;;;;;;;;;10.25;10.25;;;;;16.88;59.52;101115.69;4997501;28;45603;-75
2022/10/13 05:48:34;;;;;;;;;12.50;10.50;;;;;16.88;59.70;101107.75;4996394;28;45927;-75
2022/10/13 05:51:05;;;;;;;;;10.00;10.00;;;;;16.90;59.52;101104.94;4997018;28;45857;-73
2022/10/13 05:53:34;;;;;;;;;9.00;9.00;;;;;16.91;59.88;101098.66;4996833;28;47753;-72
2022/10/13 05:56:05;;;;;;;;;13.00;11.00;;;;;16.93;59.82;101094.94;4996900;28;47241;-74
2022/10/13 05:58:36;;;;;;;;;10.75;9.25;;;;;16.94;59.87;101096.59;4996948;28;45543;-76
2022/10/13 06:01:05;;;;;;;;;9.50;9.00;;;;;16.95;59.74;101100.09;4996962;28;45973;-75
2022/10/13 06:03:31;;;;;;;;;9.25;7.75;;;;;16.96;59.64;101109.69;4997165;28;46942;-72
2022/10/13 06:05:56;;;;;;;;;13.25;10.25;;;;;16.96;59.82;101109.69;4997008;28;46050;-76
2022/10/13 06:08:22;;;;;;;;;10.75;9.75;;;;;16.95;59.64;101108.84;4996672;28;45629;-76
2022/10/13 06:10:47;;;;;;;;;10.50;9.25;;;;;16.95;59.88;101110.69;4997052;28;45730;-73
2022/10/13 06:13:13;;;;;;;;;9.25;8.25;;;;;16.94;59.64;101115.13;4978662;28;47425;-75
2022/10/13 06:15:38;;;;;;;;;12.00;9.00;;;;;16.94;59.63;101115.13;4997074;28;46079;-74
2022/10/13 06:18:08;;;;;;;;;10.00;9.00;;;;;16.92;59.52;101113.59;4997083;28;45734;-75
2022/10/13 06:20:33;;;;;;;;;9.75;8.50;;;;;16.90;60.05;101115.53;4979075;28;45643;-77
2022/10/13 06:22:58;;;;;;;;;7.50;7.00;;;;;16.88;59.83;101114.84;4996664;28;47080;-73
2022/10/13 06:25:24;;;;;;;;;9.00;8.75;;;;;16.87;60.06;101121.94;4996669;28;47028;-79
2022/10/13 06:27:49;;;;;;;;;8.25;7.25;;;;;16.86;59.49;101119.41;4997198;28;45679;-74
2022/10/13 06:33:36;;;;;;;;;7.25;7.00;;;;;16.79;59.61;101101.44;4996512;28;46049;-74
2022/10/13 06:36:05;;;;;;;;;8.00;7.75;;;;;16.79;59.72;101105.91;4996653;28;45730;-72
2022/10/13 06:38:32;;;;;;;;;9.25;7.50;;;;;16.77;59.43;101108.69;4996787;28;45581;-70
2022/10/13 06:41:02;;;;;;;;;10.25;8.25;;;;;16.76;59.38;101109.66;4995267;28;45504;-78
2022/10/13 06:43:28;;;;;;;;;9.25;6.50;;;;;16.77;59.77;101102.56;4995886;28;47455;-73
2022/10/13 06:45:57;;;;;;;;;8.50;7.25;;;;;16.75;59.42;101094.75;4994921;28;47861;-73
2022/10/13 06:48:22;;;;;;;;;8.00;7.00;;;;;16.76;59.82;101099.09;4996052;28;45850;-75
2022/10/13 06:50:48;;;;;;;;;7.50;6.75;;;;;16.76;59.19;101106.19;4996425;28;45566;-78
2022/10/13 06:53:13;;;;;;;;;8.00;6.25;;;;;16.75;59.46;101109.78;4996358;28;45573;-75
2022/10/13 06:55:41;;;;;;;;;7.50;6.25;;;;;16.75;59.17;101109.78;4996220;28;45639;-76
2022/10/13 06:58:06;;;;;;;;;9.25;5.50;;;;;16.71;59.62;101108.41;4996415;28;45704;-75
2022/10/13 07:03:53;;;;;;;;;7.00;6.50;;;;;16.66;59.59;101122.03;4995835;28;45612;-75
2022/10/13 07:06:18;;;;;;;;;6.50;5.50;;;;;16.65;59.40;101132.75;4995794;28;47130;-77
2022/10/13 07:08:44;;;;;;;;;6.75;6.00;;;;;16.63;59.62;101139.97;4995633;28;45527;-75
2022/10/13 07:11:12;;;;;;;;;6.50;6.00;;;;;16.58;59.74;101124.47;4996166;28;45506;-75
2022/10/13 07:13:39;;;;;;;;;5.50;5.00;;;;;16.55;59.52;101119.47;4995632;28;47321;-76
2022/10/13 07:16:05;;;;;;;;;5.50;5.25;;;;;16.53;59.76;101126.69;4995921;28;45993;-77
2022/10/13 07:18:31;;;;;;;;;6.25;5.25;;;;;16.51;59.94;101133.09;4996029;28;45667;-73
2022/10/13 07:20:58;;;;;;;;;7.75;6.00;;;;;16.48;60.08;101143.94;4994546;28;45501;-74
2022/10/13 07:23:25;;;;;;;;;8.00;6.50;;;;;16.44;59.97;101138.09;4995514;28;47610;-76
2022/10/13 07:25:50;;;;;;;;;7.75;6.75;;;;;16.43;60.15;101139.06;4995778;28;46059;-76
2022/10/13 07:28:15;;;;;;;;;7.50;7.50;;;;;16.41;60.50;101132.25;4995823;28;45473;-76
2022/10/13 07:34:04;;;;;;;;;6.75;6.00;;;;;16.39;60.50;101129.72;4995485;28;45599;-72
2022/10/13 07:36:31;;;;;;;;;7.50;5.00;;;;;16.37;60.32;101123.72;4995745;28;45993;-75
2022/10/13 07:38:57;;;;;;;;;7.25;6.25;;;;;16.37;60.51;101129.00;4994930;28;45855;-73
2022/10/13 07:41:23;;;;;;;;;7.50;6.50;;;;;16.38;60.47;101128.03;4994817;28;45701;-72
2022/10/13 07:43:48;;;;;;;;;11.00;7.00;;;;;16.35;60.75;101131.81;4995281;28;45588;-76
2022/10/13 07:46:13;;;;;;;;;8.00;6.25;;;;;16.35;60.54;101131.81;4995145;28;46892;-77
2022/10/13 07:48:39;;;;;;;;;6.00;5.00;;;;;16.36;60.57;101140.56;4995118;28;45785;-74
2022/10/13 07:51:07;;;;;;;;;5.00;2.00;;;;;16.36;60.85;101144.03;4995212;28;45693;-74
2022/10/13 07:53:34;;;;;;;;;6.75;6.00;;;;;16.35;60.62;101144.19;4995384;28;45619;-73
2022/10/13 07:56:02;;;;;;;;;8.00;6.25;;;;;16.33;60.51;101149.59;4995013;28;46607;-75
2022/10/13 07:58:29;;;;;;;;;7.50;6.00;;;;;16.29;60.88;101145.56;4993614;28;45564;-71
2022/10/13 08:04:16;;;;;;;;;5.00;5.00;;;;;16.24;60.97;101155.69;4994808;28;45950;-74
2022/10/13 08:06:41;;;;;;;;;6.00;6.00;;;;;16.21;61.11;101157.75;4994937;28;46413;-76
2022/10/13 08:09:07;;;;;;;;;6.75;5.75;;;;;16.19;61.19;101159.69;4994995;28;45536;-72
2022/10/13 08:11:33;;;;;;;;;5.25;5.00;;;;;16.17;61.43;101161.63;4994794;28;45592;-73
2022/10/13 08:14:00;;;;;;;;;8.50;7.25;;;;;16.15;61.33;101167.03;4994614;28;46797;-78
2022/10/13 08:16:30;;;;;;;;;5.25;5.00;;;;;16.13;61.43;101171.63;4994561;28;46130;-74
2022/10/13 08:18:56;;;;;;;;;6.25;6.00;;;;;16.11;61.54;101159.50;4995067;28;45781;-71
2022/10/13 08:21:22;;;;;;;;;7.00;6.50;;;;;16.08;61.56;101165.91;4994726;28;45935;-74
2022/10/13 08:23:48;;;;;;;;;5.75;4.25;;;;;16.04;61.50;101163.63;4994605;28;45662;-71
2022/10/13 08:26:17;;;;;;;;;7.00;6.00;;;;;16.02;61.72;101158.50;4994625;28;47470;-75
2022/10/13 08:28:43;;;;;;;;;5.00;5.00;;;;;16.01;61.64;101145.41;4994772;28;45812;-72
2022/10/13 08:34:30;;;;;;;;;5.00;4.00;;;;;16.08;61.76;101151.84;4994464;28;45978;-72
2022/10/13 08:36:56;;;;;;;;;5.75;5.50;;;;;16.09;61.45;101154.34;4994761;28;45521;-72
2022/10/13 08:39:23;;;;;;;;;4.75;4.75;;;;;16.12;61.35;101159.38;4977058;28;45840;-73
2022/10/13 08:41:49;;;;;;;;;5.00;4.00;;;;;16.15;61.30;101166.19;4994462;28;45695;-74
2022/10/13 08:44:45;;;;;;;;;4.00;4.00;;;;;16.17;61.58;101161.63;4994236;28;47284;-74
2022/10/13 08:47:22;;;;;;;;;5.50;5.00;;;;;16.19;61.55;101168.47;4994541;28;46052;-76
2022/10/13 08:49:48;;;;;;;;;6.00;5.00;;;;;16.21;61.13;101155.94;4994013;28;45670;-73
2022/10/13 08:52:26;;;;;;;;;5.00;4.25;;;;;16.26;61.16;101166.13;4994276;28;45585;-72
2022/10/13 08:54:54;;;;;;;;;4.25;3.00;;;;;16.28;61.35;101162.38;4994315;28;46668;-74
2022/10/13 08:57:19;;;;;;;;;6.25;4.00;;;;;16.28;61.31;101166.84;4994104;28;46356;-74
2022/10/13 08:59:46;;;;;;;;;5.75;5.75;;;;;16.25;61.53;101162.63;4994362;28;45500;-72
2022/10/13 09:02:30;;;;;;;;;5.50;4.50;;;;;16.26;61.29;101161.66;4994116;28;45776;-76
2022/10/13 09:05:01;;;;;;;;;5.00;4.00;;;;;16.31;61.41;101158.63;4993739;28;46618;-72
2022/10/13 09:07:32;;;;;;;;;4.25;3.75;;;;;16.34;61.61;101155.72;4993932;28;46338;-73
2022/10/13 09:09:57;;;;;;;;;5.25;4.50;;;;;16.37;61.09;101153.66;4994266;28;45685;-71
2022/10/13 09:12:23;;;;;;;;;3.75;3.00;;;;;16.43;61.49;101156.72;4994372;28;45615;-73
2022/10/13 09:15:08;;;;;;;;;4.00;3.25;;;;;16.50;61.42;101150.78;4994015;28;46591;-76
2022/10/13 09:17:35;;;;;;;;;4.00;3.75;;;;;16.56;61.37;101160.84;4992801;28;48049;-73
2022/10/13 09:20:18;;;;;;;;;5.50;4.50;;;;;16.59;60.95;101163.22;4994198;28;45600;-73
2022/10/13 09:23:00;;;;;;;;;4.00;4.00;;;;;16.60;60.81;101164.06;4993808;28;45893;-74
2022/10/13 09:25:25;;;;;;;;;4.25;4.00;;;;;16.61;60.81;101157.81;4993787;28;46616;-74
2022/10/13 09:27:52;;;;;;;;;4.00;3.25;;;;;16.65;60.74;101161.84;4993885;28;45622;-72
2022/10/13 09:30:52;;;;;;;;;4.50;3.25;;;;;16.66;61.06;101153.78;4993926;28;45808;-77
2022/10/13 09:33:21;;;;;;;;;5.75;3.75;;;;;16.70;61.05;101159.66;4976757;28;45753;-76
2022/10/13 09:35:55;;;;;;;;;3.50;3.25;;;;;16.70;60.78;101147.25;4993787;28;46685;-74
2022/10/13 09:38:24;;;;;;;;;3.00;2.00;;;;;16.72;60.59;101144.47;4993744;28;46249;-76
2022/10/13 09:41:03;;;;;;;;;3.50;3.25;;;;;16.75;61.07;101136.25;4993531;28;45745;-73
2022/10/13 09:43:46;;;;;;;;;4.00;3.00;;;;;16.81;60.82;101141.00;4994149;28;45530;-75
2022/10/13 09:46:21;;;;;;;;;5.00;4.00;;;;;16.86;60.63;101133.50;4993523;28;47340;-74
2022/10/13 09:48:50;;;;;;;;;5.75;5.00;;;;;16.90;61.16;101136.69;4993487;28;45988;-75
2022/10/13 09:51:38;;;;;;;;;6.50;5.25;;;;;16.94;61.06;101144.25;4993873;28;45869;-76
2022/10/13 09:54:05;;;;;;;;;6.75;5.50;;;;;16.95;61.07;101143.25;4993840;28;45641;-76
2022/10/13 09:56:50;;;;;;;;;4.25;3.75;;;;;16.98;61.52;101150.94;4976009;28;46490;-77
2022/10/13 09:59:32;;;;;;;;;4.75;4.75;;;;;17.02;61.18;101151.50;4993228;28;47015;-74
2022/10/13 10:02:01;;;;;;;;;5.75;5.50;;;;;17.05;61.41;101149.44;4993461;28;45760;-73
2022/10/13 10:04:36;;;;;;;;;6.00;5.00;;;;;17.08;61.44;101153.59;4993658;28;45595;-77
2022/10/13 10:07:11;;;;;;;;;6.50;5.75;;;;;17.11;61.38;101148.03;4993670;28;45525;-75
2022/10/13 10:09:56;;;;;;;;;4.75;4.00;;;;;17.14;61.72;101137.16;4993454;28;46022;-74
2022/10/13 10:12:27;;;;;;;;;5.00;3.50;;;;;17.18;61.23;101144.69;4993192;28;45640;-74
2022/10/13 10:18:26;;;;;;;;;5.00;4.00;;;;;17.24;61.51;101138.00;4996669;28;45610;-77
2022/10/13 10:21:01;;;;;;;;;4.00;3.50;;;;;17.27;61.42;101144.84;4996373;28;46801;-76
2022/10/13 10:23:41;;;;;;;;;4.75;4.00;;;;;17.28;61.25;101149.97;4978895;28;45645;-76
2022/10/13 10:26:17;;;;;;;;;6.50;5.00;;;;;17.28;61.58;101142.03;4997123;28;45677;-73
2022/10/13 10:28:51;;;;;;;;;5.25;4.50;;;;;17.30;61.56;101140.09;4996279;28;47278;-74
2022/10/13 10:34:52;;;;;;;;;6.00;4.50;;;;;17.34;61.27;101144.13;4996402;28;45750;-72
2022/10/13 10:37:34;;;;;;;;;4.75;3.25;;;;;17.39;61.59;101138.41;4996917;28;45892;-76
2022/10/13 10:39:59;;;;;;;;;3.50;3.25;;;;;17.38;61.58;101132.28;4996393;28;46558;-73
2022/10/13 10:42:49;;;;;;;;;5.00;4.00;;;;;17.42;61.22;101127.56;4996454;28;45691;-72
2022/10/13 10:45:21;;;;;;;;;4.00;4.00;;;;;17.46;61.60;101121.00;4996509;28;45541;-75
2022/10/13 10:47:52;;;;;;;;;4.75;4.25;;;;;17.50;61.33;101127.66;4996291;28;45629;-73
2022/10/13 10:50:18;;;;;;;;;5.50;4.75;;;;;17.53;61.26;101124.75;4996118;28;47559;-77
2022/10/13 10:53:03;;;;;;;;;4.00;4.00;;;;;17.54;61.16;101121.94;4996309;28;46074;-73
2022/10/13 10:55:37;;;;;;;;;5.00;4.00;;;;;17.56;61.45;101127.13;4978541;28;45643;-73
2022/10/13 10:58:25;;;;;;;;;4.00;4.00;;;;;17.56;61.12;101122.66;4996508;28;45806;-74
2022/10/13 11:01:04;;;;;;;;;5.00;4.00;;;;;17.58;61.21;101127.81;4994440;28;48362;-74
2022/10/13 11:04:09;;;;;;;;;5.00;4.00;;;;;17.58;61.06;101118.06;4978098;28;48278;-73
2022/10/13 11:06:36;;;;;;;;;5.00;4.50;;;;;17.61;61.19;101116.97;4916272;28;45688;-72
2022/10/13 11:09:03;;;;;;;;;4.50;4.00;;;;;17.63;61.33;101115.00;4916074;28;45835;-72
2022/10/13 11:11:31;;;;;;;;;5.00;5.00;;;;;17.66;61.16;101120.00;4916194;28;45717;-72
2022/10/13 11:14:24;;;;;;;;;4.25;4.00;;;;;17.68;61.14;101120.72;4916226;28;46140;-74
2022/10/13 11:17:04;;;;;;;;;5.25;5.00;;;;;17.67;61.30;101112.91;4915866;28;45687;-73
2022/10/13 11:19:34;;;;;;;;;4.50;4.25;;;;;17.68;61.17;101111.94;4916111;28;45665;-74
2022/10/13 11:21:59;;;;;;;;;6.00;6.00;;;;;17.69;61.19;101106.50;4916036;28;47023;-74
2022/10/13 11:24:35;;;;;;;;;5.00;4.00;;;;;17.72;61.23;101102.72;4916029;28;45885;-72
2022/10/13 11:27:15;;;;;;;;;5.75;5.75;;;;;17.74;61.14;101104.25;4899520;28;45571;-74
2022/10/13 11:29:44;;;;;;;;;6.25;5.50;;;;;17.76;61.46;101096.97;4915694;28;45943;-72
2022/10/13 11:32:25;;;;;;;;;6.50;5.50;;;;;17.80;61.01;101102.84;4915578;28;46774;-72
2022/10/13 11:35:00;;;;;;;;;9.00;5.25;;;;;17.83;61.51;101086.63;4915875;28;46079;-72
2022/10/13 11:37:56;;;;;;;;;6.00;6.00;;;;;17.85;61.10;101096.13;4915848;28;45746;-72
2022/10/13 11:40:57;;;;;;;;;5.00;4.75;;;;;17.88;61.08;101092.34;4915545;28;45981;-72
2022/10/13 11:43:41;;;;;;;;;6.00;6.00;;;;;17.89;61.09;101088.72;4961391;28;46762;-73
2022/10/13 11:50:03;;;;;;;;;7.00;5.00;;;;;17.87;61.75;101083.56;4993783;28;45848;-74
2022/10/13 11:52:45;;;;;;;;;7.00;7.00;;;;;17.85;61.65;101084.69;4995142;28;45557;-77
2022/10/13 11:55:16;;;;;;;;;9.00;7.00;;;;;17.82;61.91;101083.16;4995397;28;45536;-77
2022/10/13 11:57:42;;;;;;;;;7.00;7.00;;;;;17.81;61.72;101089.47;4994906;28;47100;-78
2022/10/13 12:00:16;;;;;;;;;7.00;6.00;;;;;17.82;62.09;101079.66;4995499;28;45926;-76
2022/10/13 12:02:52;;;;;;;;;9.00;8.00;;;;;17.83;62.27;101078.69;4995330;28;45540;-76
2022/10/13 12:05:26;;;;;;;;;7.50;6.75;;;;;17.84;62.64;101075.91;4994994;28;47471;-75
2022/10/13 12:07:57;;;;;;;;;6.00;6.00;;;;;17.84;62.93;101062.66;4995200;28;46069;-77
2022/10/13 12:10:31;;;;;;;;;7.00;7.00;;;;;17.87;63.14;101064.16;4995171;28;45799;-78
2022/10/13 12:12:58;;;;;;;;;9.25;8.75;;;;;17.88;62.62;101060.53;4995278;28;45599;-76
2022/10/13 12:18:40;;;;;;;;;7.00;6.00;;;;;17.90;63.22;101056.78;4994672;28;45824;-74
2022/10/13 12:21:11;;;;;;;;;8.50;7.75;;;;;17.92;63.07;101064.59;4995084;28;45505;-72
2022/10/13 12:23:38;;;;;;;;;8.75;8.00;;;;;17.93;63.84;101061.75;4994798;28;45694;-73
2022/10/13 12:26:04;;;;;;;;;7.75;7.25;;;;;17.93;63.80;101061.75;4994954;28;45526;-74
2022/10/13 12:28:46;;;;;;;;;8.75;8.75;;;;;17.92;64.34;101064.59;4994544;28;46985;-75
2022/10/13 12:34:35;;;;;;;;;8.75;8.25;;;;;17.92;64.64;101057.44;4994517;28;45764;-73
2022/10/13 12:37:03;;;;;;;;;8.00;6.75;;;;;17.91;64.74;101049.66;4994726;28;45639;-72
2022/10/13 12:39:31;;;;;;;;;8.00;7.25;;;;;17.91;64.63;101050.50;4993413;28;47111;-73
2022/10/13 12:42:00;;;;;;;;;9.50;8.00;;;;;17.91;64.50;101052.31;4994685;28;45784;-72
2022/10/13 12:44:29;;;;;;;;;9.00;9.00;;;;;17.92;64.46;101043.38;4994981;28;45651;-76
2022/10/13 12:50:28;;;;;;;;;10.00;9.00;;;;;17.93;65.12;101047.66;4992552;28;45991;-72
2022/10/13 12:53:04;;;;;;;;;8.00;7.00;;;;;17.92;65.38;101048.69;4994197;28;45681;-72
2022/10/13 12:55:30;;;;;;;;;6.00;6.00;;;;;17.90;64.90;101034.72;4994507;28;45965;-73
2022/10/13 12:57:56;;;;;;;;;8.25;7.00;;;;;17.90;65.44;101042.69;4994274;28;46502;-72